sensor_id;sensor_type;location;lat;lon;timestamp;temperature;humidity
61004;DHT22;46889;37.310;13.582;2022-09-21T00:00:48;22.30;99.90
61004;DHT22;46889;37.310;13.582;2022-09-21T00:03:14;22.20;99.90
61004;DHT22;46889;37.310;13.582;2022-09-21T00:05:41;22.20;99.90
61004;DHT22;46889;37.310;13.582;2022-09-21T00:08:09;22.20;99.90
61004;DHT22;46889;37.310;13.582;2022-09-21T00:10:35;22.20;99.90
61004;DHT22;46889;37.310;13.582;2022-09-21T00:13:01;22.20;99.90
61004;DHT22;46889;37.310;13.582;2022-09-21T00:15:28;22.20;99.90
61004;DHT22;46889;37.310;13.582;2022-09-21T00:17:55;22.20;99.90
61004;DHT22;46889;37.310;13.582;2022-09-21T00:20:23;22.20;99.90
61004;DHT22;46889;37.310;13.582;2022-09-21T00:22:50;22.10;99.90
61004;DHT22;46889;37.310;13.582;2022-09-21T00:25:17;22.20;99.90
61004;DHT22;46889;37.310;13.582;2022-09-21T00:27:44;22.20;99.90
61004;DHT22;46889;37.310;13.582;2022-09-21T00:30:12;22.10;99.90
61004;DHT22;46889;37.310;13.582;2022-09-21T00:32:38;22.20;99.90
61004;DHT22;46889;37.310;13.582;2022-09-21T00:35:05;22.20;99.90
61004;DHT22;46889;37.310;13.582;2022-09-21T00:37:34;22.10;99.90
61004;DHT22;46889;37.310;13.582;2022-09-21T00:40:01;22.10;99.90
61004;DHT22;46889;37.310;13.582;2022-09-21T00:42:29;22.20;99.90
61004;DHT22;46889;37.310;13.582;2022-09-21T00:44:56;22.20;99.90
61004;DHT22;46889;37.310;13.582;2022-09-21T00:47:32;22.30;99.90
61004;DHT22;46889;37.310;13.582;2022-09-21T00:50:01;22.20;99.90
61004;DHT22;46889;37.310;13.582;2022-09-21T00:52:29;22.20;99.90
61004;DHT22;46889;37.310;13.582;2022-09-21T00:55:02;22.20;99.90
61004;DHT22;46889;37.310;13.582;2022-09-21T00:57:30;22.20;99.90
61004;DHT22;46889;37.310;13.582;2022-09-21T01:00:00;22.30;99.90
61004;DHT22;46889;37.310;13.582;2022-09-21T01:02:27;22.30;99.90
61004;DHT22;46889;37.310;13.582;2022-09-21T01:04:54;22.20;99.90
61004;DHT22;46889;37.310;13.582;2022-09-21T01:07:23;22.20;99.90
61004;DHT22;46889;37.310;13.582;2022-09-21T01:09:54;22.20;99.90
61004;DHT22;46889;37.310;13.582;2022-09-21T01:20:40;22.20;99.90
61004;DHT22;46889;37.310;13.582;2022-09-21T01:26:14;22.20;99.90
61004;DHT22;46889;37.310;13.582;2022-09-21T01:34:45;22.10;99.90
61004;DHT22;46889;37.310;13.582;2022-09-21T01:37:19;22.20;99.90
61004;DHT22;46889;37.310;13.582;2022-09-21T01:39:50;22.20;99.90
61004;DHT22;46889;37.310;13.582;2022-09-21T01:42:19;22.20;99.90
61004;DHT22;46889;37.310;13.582;2022-09-21T01:44:46;22.20;99.90
61004;DHT22;46889;37.310;13.582;2022-09-21T01:47:15;22.30;99.90
61004;DHT22;46889;37.310;13.582;2022-09-21T01:49:47;22.20;99.90
61004;DHT22;46889;37.310;13.582;2022-09-21T01:52:25;22.20;99.90
61004;DHT22;46889;37.310;13.582;2022-09-21T01:54:56;22.20;99.90
61004;DHT22;46889;37.310;13.582;2022-09-21T01:57:32;22.10;99.90
61004;DHT22;46889;37.310;13.582;2022-09-21T02:00:00;22.10;99.90
61004;DHT22;46889;37.310;13.582;2022-09-21T02:05:01;22.00;99.90
61004;DHT22;46889;37.310;13.582;2022-09-21T02:07:28;22.00;99.90
61004;DHT22;46889;37.310;13.582;2022-09-21T02:09:55;22.00;99.90
61004;DHT22;46889;37.310;13.582;2022-09-21T02:12:22;21.90;99.90
61004;DHT22;46889;37.310;13.582;2022-09-21T02:14:49;21.80;99.90
61004;DHT22;46889;37.310;13.582;2022-09-21T02:17:38;21.80;99.90
61004;DHT22;46889;37.310;13.582;2022-09-21T02:26:04;21.90;99.90
61004;DHT22;46889;37.310;13.582;2022-09-21T02:29:05;22.00;99.90
61004;DHT22;46889;37.310;13.582;2022-09-21T02:31:41;22.00;99.90
61004;DHT22;46889;37.310;13.582;2022-09-21T02:34:42;22.00;99.90
61004;DHT22;46889;37.310;13.582;2022-09-21T02:40:43;22.10;99.90
61004;DHT22;46889;37.310;13.582;2022-09-21T02:43:25;22.00;99.90
61004;DHT22;46889;37.310;13.582;2022-09-21T02:46:11;22.00;99.90
61004;DHT22;46889;37.310;13.582;2022-09-21T02:48:48;21.90;99.90
61004;DHT22;46889;37.310;13.582;2022-09-21T02:51:30;22.00;99.90
61004;DHT22;46889;37.310;13.582;2022-09-21T02:54:01;22.00;99.90
61004;DHT22;46889;37.310;13.582;2022-09-21T02:56:30;22.00;99.90
61004;DHT22;46889;37.310;13.582;2022-09-21T02:59:00;22.00;99.90
61004;DHT22;46889;37.310;13.582;2022-09-21T03:01:27;22.00;99.90
61004;DHT22;46889;37.310;13.582;2022-09-21T03:03:54;22.00;99.90
61004;DHT22;46889;37.310;13.582;2022-09-21T03:06:20;22.00;99.90
61004;DHT22;46889;37.310;13.582;2022-09-21T03:08:46;21.90;99.90
61004;DHT22;46889;37.310;13.582;2022-09-21T03:11:17;21.90;99.90
61004;DHT22;46889;37.310;13.582;2022-09-21T03:13:44;21.80;99.90
61004;DHT22;46889;37.310;13.582;2022-09-21T03:16:11;21.80;99.90
61004;DHT22;46889;37.310;13.582;2022-09-21T03:18:37;21.70;99.90
61004;DHT22;46889;37.310;13.582;2022-09-21T03:21:05;21.70;99.90
61004;DHT22;46889;37.310;13.582;2022-09-21T03:23:31;21.60;99.90
61004;DHT22;46889;37.310;13.582;2022-09-21T03:25:57;21.60;99.90
61004;DHT22;46889;37.310;13.582;2022-09-21T03:28:23;21.70;99.90
61004;DHT22;46889;37.310;13.582;2022-09-21T03:30:50;21.70;99.90
61004;DHT22;46889;37.310;13.582;2022-09-21T03:33:17;21.80;99.90
61004;DHT22;46889;37.310;13.582;2022-09-21T03:35:44;21.80;99.90
61004;DHT22;46889;37.310;13.582;2022-09-21T03:38:10;21.70;99.90
61004;DHT22;46889;37.310;13.582;2022-09-21T03:40:36;21.80;99.90
61004;DHT22;46889;37.310;13.582;2022-09-21T03:43:02;21.70;99.90
61004;DHT22;46889;37.310;13.582;2022-09-21T03:45:29;21.60;99.90
61004;DHT22;46889;37.310;13.582;2022-09-21T03:47:59;21.60;99.90
61004;DHT22;46889;37.310;13.582;2022-09-21T03:50:26;21.50;99.90
61004;DHT22;46889;37.310;13.582;2022-09-21T03:52:53;21.50;99.90
61004;DHT22;46889;37.310;13.582;2022-09-21T03:55:20;21.50;99.90
61004;DHT22;46889;37.310;13.582;2022-09-21T03:57:46;21.50;99.90
61004;DHT22;46889;37.310;13.582;2022-09-21T04:00:13;21.40;99.90
61004;DHT22;46889;37.310;13.582;2022-09-21T04:02:39;21.40;99.90
61004;DHT22;46889;37.310;13.582;2022-09-21T04:05:07;21.30;99.90
61004;DHT22;46889;37.310;13.582;2022-09-21T04:07:34;21.30;99.90
61004;DHT22;46889;37.310;13.582;2022-09-21T04:10:04;21.20;99.90
61004;DHT22;46889;37.310;13.582;2022-09-21T04:12:34;21.30;99.90
61004;DHT22;46889;37.310;13.582;2022-09-21T04:15:01;21.20;99.90
61004;DHT22;46889;37.310;13.582;2022-09-21T04:17:27;21.10;99.90
61004;DHT22;46889;37.310;13.582;2022-09-21T04:19:54;21.10;99.90
61004;DHT22;46889;37.310;13.582;2022-09-21T04:22:20;21.00;99.90
61004;DHT22;46889;37.310;13.582;2022-09-21T04:24:46;21.00;99.90
61004;DHT22;46889;37.310;13.582;2022-09-21T04:27:12;21.00;99.90
61004;DHT22;46889;37.310;13.582;2022-09-21T04:29:38;21.00;99.90
61004;DHT22;46889;37.310;13.582;2022-09-21T04:32:04;20.90;99.90
61004;DHT22;46889;37.310;13.582;2022-09-21T04:34:31;20.90;99.90
61004;DHT22;46889;37.310;13.582;2022-09-21T04:36:57;20.80;99.90
61004;DHT22;46889;37.310;13.582;2022-09-21T04:39:24;20.80;99.90
61004;DHT22;46889;37.310;13.582;2022-09-21T04:41:50;20.80;99.90
61004;DHT22;46889;37.310;13.582;2022-09-21T04:44:16;20.80;99.90
61004;DHT22;46889;37.310;13.582;2022-09-21T04:46:45;20.90;99.90
61004;DHT22;46889;37.310;13.582;2022-09-21T04:49:11;20.80;99.90
61004;DHT22;46889;37.310;13.582;2022-09-21T04:51:37;20.90;99.90
61004;DHT22;46889;37.310;13.582;2022-09-21T04:54:03;20.90;99.90
61004;DHT22;46889;37.310;13.582;2022-09-21T04:56:30;20.80;99.90
61004;DHT22;46889;37.310;13.582;2022-09-21T04:58:56;20.90;99.90
61004;DHT22;46889;37.310;13.582;2022-09-21T05:01:22;20.80;99.90
61004;DHT22;46889;37.310;13.582;2022-09-21T05:03:48;20.80;99.90
61004;DHT22;46889;37.310;13.582;2022-09-21T05:06:14;20.90;99.90
61004;DHT22;46889;37.310;13.582;2022-09-21T05:08:40;20.90;99.90
61004;DHT22;46889;37.310;13.582;2022-09-21T05:11:25;20.90;99.90
61004;DHT22;46889;37.310;13.582;2022-09-21T05:13:51;20.90;99.90
61004;DHT22;46889;37.310;13.582;2022-09-21T05:16:18;20.90;99.90
61004;DHT22;46889;37.310;13.582;2022-09-21T05:18:44;20.90;99.90
61004;DHT22;46889;37.310;13.582;2022-09-21T05:21:10;20.90;99.90
61004;DHT22;46889;37.310;13.582;2022-09-21T05:23:37;20.90;99.90
61004;DHT22;46889;37.310;13.582;2022-09-21T05:26:03;20.90;99.90
61004;DHT22;46889;37.310;13.582;2022-09-21T05:28:29;20.90;99.90
61004;DHT22;46889;37.310;13.582;2022-09-21T05:33:43;20.90;99.90
61004;DHT22;46889;37.310;13.582;2022-09-21T05:36:38;20.90;99.90
61004;DHT22;46889;37.310;13.582;2022-09-21T05:39:06;21.00;99.90
61004;DHT22;46889;37.310;13.582;2022-09-21T05:41:32;21.20;99.90
61004;DHT22;46889;37.310;13.582;2022-09-21T05:43:58;21.90;99.90
61004;DHT22;46889;37.310;13.582;2022-09-21T05:46:36;23.20;99.90
61004;DHT22;46889;37.310;13.582;2022-09-21T05:57:42;28.10;99.90
61004;DHT22;46889;37.310;13.582;2022-09-21T06:00:19;28.60;99.90
61004;DHT22;46889;37.310;13.582;2022-09-21T06:05:32;29.80;99.90
61004;DHT22;46889;37.310;13.582;2022-09-21T06:07:58;30.90;99.90
61004;DHT22;46889;37.310;13.582;2022-09-21T06:10:24;31.20;99.90
61004;DHT22;46889;37.310;13.582;2022-09-21T06:12:51;31.60;99.90
61004;DHT22;46889;37.310;13.582;2022-09-21T06:15:17;32.30;99.90
61004;DHT22;46889;37.310;13.582;2022-09-21T06:17:43;32.70;99.90
61004;DHT22;46889;37.310;13.582;2022-09-21T06:20:09;32.90;99.90
61004;DHT22;46889;37.310;13.582;2022-09-21T06:22:35;33.60;99.90
61004;DHT22;46889;37.310;13.582;2022-09-21T06:25:01;33.90;99.90
61004;DHT22;46889;37.310;13.582;2022-09-21T06:27:27;34.60;99.90
61004;DHT22;46889;37.310;13.582;2022-09-21T06:29:53;35.30;99.90
61004;DHT22;46889;37.310;13.582;2022-09-21T06:32:19;35.80;99.90
61004;DHT22;46889;37.310;13.582;2022-09-21T06:34:45;36.00;99.90
61004;DHT22;46889;37.310;13.582;2022-09-21T06:37:11;35.00;99.90
61004;DHT22;46889;37.310;13.582;2022-09-21T06:39:37;35.00;99.90
61004;DHT22;46889;37.310;13.582;2022-09-21T06:42:04;35.00;99.90
61004;DHT22;46889;37.310;13.582;2022-09-21T06:44:30;35.60;99.90
61004;DHT22;46889;37.310;13.582;2022-09-21T06:46:56;35.70;99.90
61004;DHT22;46889;37.310;13.582;2022-09-21T06:49:22;36.40;99.90
61004;DHT22;46889;37.310;13.582;2022-09-21T06:52:13;36.90;99.90
61004;DHT22;46889;37.310;13.582;2022-09-21T06:54:39;37.50;99.90
61004;DHT22;46889;37.310;13.582;2022-09-21T06:57:07;37.80;99.80
61004;DHT22;46889;37.310;13.582;2022-09-21T06:59:33;38.10;99.20
61004;DHT22;46889;37.310;13.582;2022-09-21T07:01:59;36.20;99.60
61004;DHT22;46889;37.310;13.582;2022-09-21T07:04:25;34.70;99.90
61004;DHT22;46889;37.310;13.582;2022-09-21T07:06:51;34.10;99.90
61004;DHT22;46889;37.310;13.582;2022-09-21T07:09:17;33.50;99.90
61004;DHT22;46889;37.310;13.582;2022-09-21T07:11:43;33.10;99.90
61004;DHT22;46889;37.310;13.582;2022-09-21T07:14:09;32.70;99.90
61004;DHT22;46889;37.310;13.582;2022-09-21T07:16:35;33.30;99.90
61004;DHT22;46889;37.310;13.582;2022-09-21T07:19:02;33.60;99.90
61004;DHT22;46889;37.310;13.582;2022-09-21T07:21:28;33.40;99.90
61004;DHT22;46889;37.310;13.582;2022-09-21T07:23:57;34.00;99.90
61004;DHT22;46889;37.310;13.582;2022-09-21T07:26:23;34.10;99.90
61004;DHT22;46889;37.310;13.582;2022-09-21T07:28:49;32.90;99.90
61004;DHT22;46889;37.310;13.582;2022-09-21T07:31:16;32.00;99.90
61004;DHT22;46889;37.310;13.582;2022-09-21T07:33:43;30.90;99.90
61004;DHT22;46889;37.310;13.582;2022-09-21T07:36:11;30.50;99.90
61004;DHT22;46889;37.310;13.582;2022-09-21T07:38:42;29.80;99.90
61004;DHT22;46889;37.310;13.582;2022-09-21T07:41:12;29.00;99.90
61004;DHT22;46889;37.310;13.582;2022-09-21T07:43:39;28.90;99.90
61004;DHT22;46889;37.310;13.582;2022-09-21T07:46:07;29.00;99.90
61004;DHT22;46889;37.310;13.582;2022-09-21T07:48:33;28.90;99.90
61004;DHT22;46889;37.310;13.582;2022-09-21T07:51:04;28.70;99.90
61004;DHT22;46889;37.310;13.582;2022-09-21T07:53:32;28.80;99.90
61004;DHT22;46889;37.310;13.582;2022-09-21T07:56:20;29.10;99.90
61004;DHT22;46889;37.310;13.582;2022-09-21T07:58:46;28.90;99.90
61004;DHT22;46889;37.310;13.582;2022-09-21T08:01:36;28.70;99.90
61004;DHT22;46889;37.310;13.582;2022-09-21T08:04:04;29.00;99.90
61004;DHT22;46889;37.310;13.582;2022-09-21T08:06:31;29.10;99.90
61004;DHT22;46889;37.310;13.582;2022-09-21T08:09:02;29.40;99.90
61004;DHT22;46889;37.310;13.582;2022-09-21T08:11:29;29.90;99.90
61004;DHT22;46889;37.310;13.582;2022-09-21T08:14:01;30.30;99.90
61004;DHT22;46889;37.310;13.582;2022-09-21T08:16:28;30.50;99.90
61004;DHT22;46889;37.310;13.582;2022-09-21T08:18:55;30.70;99.90
61004;DHT22;46889;37.310;13.582;2022-09-21T08:21:21;30.70;99.90
61004;DHT22;46889;37.310;13.582;2022-09-21T08:23:47;30.30;99.90
61004;DHT22;46889;37.310;13.582;2022-09-21T08:26:16;30.30;99.90
61004;DHT22;46889;37.310;13.582;2022-09-21T08:28:51;29.80;99.90
61004;DHT22;46889;37.310;13.582;2022-09-21T08:31:20;29.60;99.90
61004;DHT22;46889;37.310;13.582;2022-09-21T08:33:47;29.90;99.90
61004;DHT22;46889;37.310;13.582;2022-09-21T08:36:14;30.10;99.90
61004;DHT22;46889;37.310;13.582;2022-09-21T08:38:40;30.10;99.90
61004;DHT22;46889;37.310;13.582;2022-09-21T08:41:16;30.00;99.90
61004;DHT22;46889;37.310;13.582;2022-09-21T08:43:50;29.80;99.90
61004;DHT22;46889;37.310;13.582;2022-09-21T08:46:20;29.60;99.90
61004;DHT22;46889;37.310;13.582;2022-09-21T08:48:52;29.70;99.90
61004;DHT22;46889;37.310;13.582;2022-09-21T08:51:25;29.60;99.90
61004;DHT22;46889;37.310;13.582;2022-09-21T08:53:56;29.60;99.90
61004;DHT22;46889;37.310;13.582;2022-09-21T08:56:25;29.80;99.90
61004;DHT22;46889;37.310;13.582;2022-09-21T08:58:52;29.70;99.90
61004;DHT22;46889;37.310;13.582;2022-09-21T09:01:55;29.90;99.90
61004;DHT22;46889;37.310;13.582;2022-09-21T09:12:59;30.40;99.90
61004;DHT22;46889;37.310;13.582;2022-09-21T09:20:59;30.30;99.90
61004;DHT22;46889;37.310;13.582;2022-09-21T09:23:31;30.40;99.90
61004;DHT22;46889;37.310;13.582;2022-09-21T09:26:18;30.20;99.90
61004;DHT22;46889;37.310;13.582;2022-09-21T09:29:17;30.10;99.90
61004;DHT22;46889;37.310;13.582;2022-09-21T09:31:41;30.00;99.90
61004;DHT22;46889;37.310;13.582;2022-09-21T09:34:30;29.90;99.90
61004;DHT22;46889;37.310;13.582;2022-09-21T09:37:15;29.90;99.90
61004;DHT22;46889;37.310;13.582;2022-09-21T09:39:43;30.00;99.90
61004;DHT22;46889;37.310;13.582;2022-09-21T09:45:04;29.80;99.90
61004;DHT22;46889;37.310;13.582;2022-09-21T09:47:42;30.00;99.90
61004;DHT22;46889;37.310;13.582;2022-09-21T09:50:29;30.20;99.90
61004;DHT22;46889;37.310;13.582;2022-09-21T09:53:03;30.00;99.90
61004;DHT22;46889;37.310;13.582;2022-09-21T09:55:36;30.20;99.90
61004;DHT22;46889;37.310;13.582;2022-09-21T09:58:03;30.30;99.90
61004;DHT22;46889;37.310;13.582;2022-09-21T10:00:29;30.30;99.90
61004;DHT22;46889;37.310;13.582;2022-09-21T10:02:57;30.20;99.90
61004;DHT22;46889;37.310;13.582;2022-09-21T10:05:34;30.20;99.90
61004;DHT22;46889;37.310;13.582;2022-09-21T10:08:03;30.40;99.90
61004;DHT22;46889;37.310;13.582;2022-09-21T10:10:33;30.50;99.90
61004;DHT22;46889;37.310;13.582;2022-09-21T10:13:17;30.50;99.90
61004;DHT22;46889;37.310;13.582;2022-09-21T10:16:10;30.60;99.90
61004;DHT22;46889;37.310;13.582;2022-09-21T10:18:44;30.60;99.90
61004;DHT22;46889;37.310;13.582;2022-09-21T10:21:36;30.50;99.90
61004;DHT22;46889;37.310;13.582;2022-09-21T10:24:28;30.40;99.90
61004;DHT22;46889;37.310;13.582;2022-09-21T10:29:42;30.30;99.90
61004;DHT22;46889;37.310;13.582;2022-09-21T10:37:30;30.40;99.90
61004;DHT22;46889;37.310;13.582;2022-09-21T10:39:59;30.40;99.90
61004;DHT22;46889;37.310;13.582;2022-09-21T10:42:33;30.50;99.90
61004;DHT22;46889;37.310;13.582;2022-09-21T10:45:14;30.00;99.90
61004;DHT22;46889;37.310;13.582;2022-09-21T10:53:30;30.20;99.90
61004;DHT22;46889;37.310;13.582;2022-09-21T10:56:16;30.10;99.90
61004;DHT22;46889;37.310;13.582;2022-09-21T11:01:50;30.10;99.90
61004;DHT22;46889;37.310;13.582;2022-09-21T11:04:37;30.10;99.90
61004;DHT22;46889;37.310;13.582;2022-09-21T11:07:11;30.20;99.90
61004;DHT22;46889;37.310;13.582;2022-09-21T11:12:30;30.40;99.90
61004;DHT22;46889;37.310;13.582;2022-09-21T11:15:24;30.40;99.90
61004;DHT22;46889;37.310;13.582;2022-09-21T11:21:04;30.30;99.90
61004;DHT22;46889;37.310;13.582;2022-09-21T11:26:24;30.50;99.90
61004;DHT22;46889;37.310;13.582;2022-09-21T11:34:26;30.20;99.90
61004;DHT22;46889;37.310;13.582;2022-09-21T11:46:15;30.60;99.90
61004;DHT22;46889;37.310;13.582;2022-09-21T11:51:33;30.80;99.90
61004;DHT22;46889;37.310;13.582;2022-09-21T12:11:04;30.70;99.90
61004;DHT22;46889;37.310;13.582;2022-09-21T12:19:08;30.90;99.90
61004;DHT22;46889;37.310;13.582;2022-09-21T12:22:01;31.00;99.90
61004;DHT22;46889;37.310;13.582;2022-09-21T12:25:11;30.80;99.90
61004;DHT22;46889;37.310;13.582;2022-09-21T12:27:36;30.70;99.90
61004;DHT22;46889;37.310;13.582;2022-09-21T12:30:20;30.40;99.90
61004;DHT22;46889;37.310;13.582;2022-09-21T12:33:01;30.50;99.90
61004;DHT22;46889;37.310;13.582;2022-09-21T12:35:36;30.40;99.90
61004;DHT22;46889;37.310;13.582;2022-09-21T12:43:38;30.40;99.90
61004;DHT22;46889;37.310;13.582;2022-09-21T12:48:40;30.70;99.90
61004;DHT22;46889;37.310;13.582;2022-09-21T12:53:44;30.80;99.90
61004;DHT22;46889;37.310;13.582;2022-09-21T13:06:52;31.00;99.90
61004;DHT22;46889;37.310;13.582;2022-09-21T13:09:22;31.00;99.90
61004;DHT22;46889;37.310;13.582;2022-09-21T13:12:25;30.70;99.90
61004;DHT22;46889;37.310;13.582;2022-09-21T13:15:01;30.80;99.90
61004;DHT22;46889;37.310;13.582;2022-09-21T13:17:30;30.30;99.90
61004;DHT22;46889;37.310;13.582;2022-09-21T13:22:24;30.00;99.90
61004;DHT22;46889;37.310;13.582;2022-09-21T13:25:24;29.70;99.90
61004;DHT22;46889;37.310;13.582;2022-09-21T13:30:42;29.30;99.90
61004;DHT22;46889;37.310;13.582;2022-09-21T13:41:20;29.40;99.90
61004;DHT22;46889;37.310;13.582;2022-09-21T13:51:56;29.80;99.90
61004;DHT22;46889;37.310;13.582;2022-09-21T13:54:31;29.80;99.90
61004;DHT22;46889;37.310;13.582;2022-09-21T13:57:22;30.00;99.90
61004;DHT22;46889;37.310;13.582;2022-09-21T14:02:36;29.30;99.90
61004;DHT22;46889;37.310;13.582;2022-09-21T14:10:59;29.60;99.90
61004;DHT22;46889;37.310;13.582;2022-09-21T14:13:37;29.70;99.90
61004;DHT22;46889;37.310;13.582;2022-09-21T14:18:55;29.90;99.90
61004;DHT22;46889;37.310;13.582;2022-09-21T14:21:21;30.00;99.90
61004;DHT22;46889;37.310;13.582;2022-09-21T14:29:43;29.50;99.90
61004;DHT22;46889;37.310;13.582;2022-09-21T14:32:15;29.80;99.90
61004;DHT22;46889;37.310;13.582;2022-09-21T14:34:44;30.10;99.90
61004;DHT22;46889;37.310;13.582;2022-09-21T14:37:39;30.30;99.90
61004;DHT22;46889;37.310;13.582;2022-09-21T14:40:25;30.40;99.90
61004;DHT22;46889;37.310;13.582;2022-09-21T14:42:54;30.20;99.90
61004;DHT22;46889;37.310;13.582;2022-09-21T14:48:37;30.30;99.90
61004;DHT22;46889;37.310;13.582;2022-09-21T14:51:18;30.20;99.90
61004;DHT22;46889;37.310;13.582;2022-09-21T14:56:34;29.90;99.90
61004;DHT22;46889;37.310;13.582;2022-09-21T15:02:15;30.00;99.90
61004;DHT22;46889;37.310;13.582;2022-09-21T15:05:08;30.10;99.90
61004;DHT22;46889;37.310;13.582;2022-09-21T15:08:01;30.10;99.90
61004;DHT22;46889;37.310;13.582;2022-09-21T15:16:38;29.60;99.90
61004;DHT22;46889;37.310;13.582;2022-09-21T15:19:25;29.60;99.90
61004;DHT22;46889;37.310;13.582;2022-09-21T15:22:18;29.70;99.90
61004;DHT22;46889;37.310;13.582;2022-09-21T15:24:53;29.30;99.90
61004;DHT22;46889;37.310;13.582;2022-09-21T15:27:23;29.30;99.90
61004;DHT22;46889;37.310;13.582;2022-09-21T15:29:52;29.10;99.90
61004;DHT22;46889;37.310;13.582;2022-09-21T15:32:38;29.00;99.90
61004;DHT22;46889;37.310;13.582;2022-09-21T15:35:20;29.00;99.90
61004;DHT22;46889;37.310;13.582;2022-09-21T15:37:47;28.90;99.90
61004;DHT22;46889;37.310;13.582;2022-09-21T15:40:27;28.80;99.90
61004;DHT22;46889;37.310;13.582;2022-09-21T15:43:05;28.80;99.90
61004;DHT22;46889;37.310;13.582;2022-09-21T15:45:53;28.80;99.90
61004;DHT22;46889;37.310;13.582;2022-09-21T15:48:21;28.80;99.90
61004;DHT22;46889;37.310;13.582;2022-09-21T15:50:53;28.80;99.90
61004;DHT22;46889;37.310;13.582;2022-09-21T15:53:27;28.90;99.90
61004;DHT22;46889;37.310;13.582;2022-09-21T15:55:55;29.00;99.90
61004;DHT22;46889;37.310;13.582;2022-09-21T15:58:33;28.90;99.90
61004;DHT22;46889;37.310;13.582;2022-09-21T16:01:12;28.80;99.90
61004;DHT22;46889;37.310;13.582;2022-09-21T16:03:40;28.70;99.90
61004;DHT22;46889;37.310;13.582;2022-09-21T16:06:25;28.70;99.90
61004;DHT22;46889;37.310;13.582;2022-09-21T16:08:51;28.70;99.90
61004;DHT22;46889;37.310;13.582;2022-09-21T16:11:33;28.50;99.90
61004;DHT22;46889;37.310;13.582;2022-09-21T16:14:13;28.40;99.90
61004;DHT22;46889;37.310;13.582;2022-09-21T16:22:36;28.10;99.90
61004;DHT22;46889;37.310;13.582;2022-09-21T16:25:23;28.10;99.90
61004;DHT22;46889;37.310;13.582;2022-09-21T16:27:55;28.00;99.90
61004;DHT22;46889;37.310;13.582;2022-09-21T16:35:57;27.90;99.90
61004;DHT22;46889;37.310;13.582;2022-09-21T16:38:24;27.90;99.90
61004;DHT22;46889;37.310;13.582;2022-09-21T16:40:51;27.90;99.90
61004;DHT22;46889;37.310;13.582;2022-09-21T16:43:18;27.90;99.90
61004;DHT22;46889;37.310;13.582;2022-09-21T16:45:47;27.80;99.90
61004;DHT22;46889;37.310;13.582;2022-09-21T16:48:13;27.70;99.90
61004;DHT22;46889;37.310;13.582;2022-09-21T16:50:39;27.50;99.90
61004;DHT22;46889;37.310;13.582;2022-09-21T16:53:08;27.40;99.90
61004;DHT22;46889;37.310;13.582;2022-09-21T16:55:34;27.20;99.90
61004;DHT22;46889;37.310;13.582;2022-09-21T16:58:00;27.10;99.90
61004;DHT22;46889;37.310;13.582;2022-09-21T17:00:27;27.00;99.90
61004;DHT22;46889;37.310;13.582;2022-09-21T17:02:55;27.00;99.90
61004;DHT22;46889;37.310;13.582;2022-09-21T17:05:21;27.00;99.90
61004;DHT22;46889;37.310;13.582;2022-09-21T17:10:15;26.80;99.90
61004;DHT22;46889;37.310;13.582;2022-09-21T17:12:41;26.80;99.90
61004;DHT22;46889;37.310;13.582;2022-09-21T17:15:11;26.70;99.90
61004;DHT22;46889;37.310;13.582;2022-09-21T17:17:37;26.50;99.90
61004;DHT22;46889;37.310;13.582;2022-09-21T17:20:47;26.40;99.90
61004;DHT22;46889;37.310;13.582;2022-09-21T17:23:07;26.40;99.90
61004;DHT22;46889;37.310;13.582;2022-09-21T17:25:34;26.20;99.90
61004;DHT22;46889;37.310;13.582;2022-09-21T17:28:01;26.00;99.90
61004;DHT22;46889;37.310;13.582;2022-09-21T17:30:28;25.90;99.90
61004;DHT22;46889;37.310;13.582;2022-09-21T17:32:55;25.70;99.90
61004;DHT22;46889;37.310;13.582;2022-09-21T17:35:31;25.40;99.90
61004;DHT22;46889;37.310;13.582;2022-09-21T17:37:58;25.40;99.90
61004;DHT22;46889;37.310;13.582;2022-09-21T17:40:25;25.20;99.90
61004;DHT22;46889;37.310;13.582;2022-09-21T17:42:56;25.10;99.90
61004;DHT22;46889;37.310;13.582;2022-09-21T17:45:38;25.00;99.90
61004;DHT22;46889;37.310;13.582;2022-09-21T17:48:15;24.90;99.90
61004;DHT22;46889;37.310;13.582;2022-09-21T17:50:42;24.90;99.90
61004;DHT22;46889;37.310;13.582;2022-09-21T17:53:09;24.70;99.90
61004;DHT22;46889;37.310;13.582;2022-09-21T17:55:56;24.60;99.90
61004;DHT22;46889;37.310;13.582;2022-09-21T18:01:00;24.20;99.90
61004;DHT22;46889;37.310;13.582;2022-09-21T18:03:36;24.00;99.90
61004;DHT22;46889;37.310;13.582;2022-09-21T18:06:07;24.00;99.90
61004;DHT22;46889;37.310;13.582;2022-09-21T18:08:35;24.00;99.90
61004;DHT22;46889;37.310;13.582;2022-09-21T18:25:25;23.70;99.90
61004;DHT22;46889;37.310;13.582;2022-09-21T18:27:52;23.70;99.90
61004;DHT22;46889;37.310;13.582;2022-09-21T18:30:20;23.60;99.90
61004;DHT22;46889;37.310;13.582;2022-09-21T18:35:33;23.70;99.90
61004;DHT22;46889;37.310;13.582;2022-09-21T18:41:44;23.40;99.90
61004;DHT22;46889;37.310;13.582;2022-09-21T18:44:17;23.40;99.90
61004;DHT22;46889;37.310;13.582;2022-09-21T18:46:58;23.40;99.90
61004;DHT22;46889;37.310;13.582;2022-09-21T18:49:43;23.40;99.90
61004;DHT22;46889;37.310;13.582;2022-09-21T18:55:41;23.30;99.90
61004;DHT22;46889;37.310;13.582;2022-09-21T18:58:02;23.40;99.90
61004;DHT22;46889;37.310;13.582;2022-09-21T19:00:28;23.30;99.90
61004;DHT22;46889;37.310;13.582;2022-09-21T19:03:09;23.20;99.90
61004;DHT22;46889;37.310;13.582;2022-09-21T19:05:38;23.10;99.90
61004;DHT22;46889;37.310;13.582;2022-09-21T19:11:06;23.10;99.90
61004;DHT22;46889;37.310;13.582;2022-09-21T19:13:59;23.20;99.90
61004;DHT22;46889;37.310;13.582;2022-09-21T19:16:30;23.20;99.90
61004;DHT22;46889;37.310;13.582;2022-09-21T19:25:09;23.30;99.90
61004;DHT22;46889;37.310;13.582;2022-09-21T19:28:00;23.10;99.90
61004;DHT22;46889;37.310;13.582;2022-09-21T19:30:25;23.10;99.90
61004;DHT22;46889;37.310;13.582;2022-09-21T19:32:53;23.20;99.90
61004;DHT22;46889;37.310;13.582;2022-09-21T19:35:30;23.20;99.90
61004;DHT22;46889;37.310;13.582;2022-09-21T19:37:58;23.20;99.90
61004;DHT22;46889;37.310;13.582;2022-09-21T19:40:30;23.30;99.90
61004;DHT22;46889;37.310;13.582;2022-09-21T19:43:19;23.20;99.90
61004;DHT22;46889;37.310;13.582;2022-09-21T19:46:05;23.20;99.90
61004;DHT22;46889;37.310;13.582;2022-09-21T19:49:31;23.10;99.90
61004;DHT22;46889;37.310;13.582;2022-09-21T19:51:54;23.00;99.90
61004;DHT22;46889;37.310;13.582;2022-09-21T19:54:23;23.10;99.90